createdAt,value
2023-04-26T00:02:51.542Z,98378.75
2023-04-26T00:07:54.361Z,98379.92
2023-04-26T00:12:56.109Z,98383.61
2023-04-26T00:17:57.956Z,98384.86
2023-04-26T00:22:59.822Z,98385.13
2023-04-26T00:28:02.046Z,98390.46
2023-04-26T00:33:04.077Z,98394.08
2023-04-26T00:38:06.383Z,98394.98
2023-04-26T00:43:08.682Z,98399.73
2023-04-26T00:48:10.832Z,98406.31
2023-04-26T00:53:14.558Z,98412.33
2023-04-26T00:58:16.476Z,98420.63
2023-04-26T01:03:18.773Z,98424.98
2023-04-26T01:08:21.829Z,98424.83
2023-04-26T01:13:26.022Z,98421.27
2023-04-26T01:18:27.929Z,98427.88
2023-04-26T01:23:31.951Z,98431.87
2023-04-26T01:28:34.317Z,98434.89
2023-04-26T01:33:39.882Z,98436.99
2023-04-26T01:38:41.801Z,98438.69
2023-04-26T01:43:43.525Z,98439.43
2023-04-26T01:48:45.143Z,98445.19
2023-04-26T01:53:47.122Z,98447.07
2023-04-26T01:58:48.776Z,98452.40
2023-04-26T02:03:51.333Z,98455.81
2023-04-26T02:08:54.810Z,98456.89
2023-04-26T02:13:56.827Z,98458.88
2023-04-26T02:19:00.050Z,98457.10
2023-04-26T02:24:01.765Z,98455.00
2023-04-26T02:29:06.338Z,98448.18
2023-04-26T02:34:08.585Z,98446.74
2023-04-26T02:39:12.121Z,98453.80
2023-04-26T02:44:14.244Z,98452.89
2023-04-26T02:49:16.578Z,98452.80
2023-04-26T02:54:18.631Z,98454.98
2023-04-26T02:59:20.471Z,98455.13
2023-04-26T03:04:22.877Z,98462.31
2023-04-26T03:09:24.829Z,98462.88
2023-04-26T03:14:27.174Z,98470.23
2023-04-26T03:19:29.730Z,98473.42
2023-04-26T03:24:31.927Z,98476.23
2023-04-26T03:29:33.739Z,98482.56
2023-04-26T03:34:35.563Z,98484.59
2023-04-26T03:39:37.656Z,98497.15
2023-04-26T03:44:39.638Z,98503.48
2023-04-26T03:49:42.690Z,98505.15
2023-04-26T03:54:44.376Z,98509.34
2023-04-26T03:59:46.975Z,98513.91
2023-04-26T04:04:49.156Z,98518.52
2023-04-26T04:09:51.244Z,98526.32
2023-04-26T04:14:55.234Z,98526.18
2023-04-26T04:19:58.515Z,98534.06
2023-04-26T04:25:00.385Z,98535.52
2023-04-26T04:30:04.271Z,98543.59
2023-04-26T04:35:07.376Z,98543.05
2023-04-26T04:40:11.651Z,98540.11
2023-04-26T04:45:14.915Z,98541.06
2023-04-26T04:50:17.696Z,98547.18
2023-04-26T04:55:19.758Z,98552.38
2023-04-26T05:00:22.019Z,98554.06
2023-04-26T05:05:37.246Z,98553.40
2023-04-26T05:10:39.256Z,98551.81
2023-04-26T05:15:41.468Z,98551.71
2023-04-26T05:20:43.305Z,98548.80
2023-04-26T05:25:45.531Z,98551.39
2023-04-26T05:31:05.922Z,98551.04
2023-04-26T05:36:23.707Z,98557.54
2023-04-26T05:41:25.438Z,98564.35
2023-04-26T05:46:27.296Z,98562.69
2023-04-26T05:51:29.945Z,98563.06
2023-04-26T05:56:32.287Z,98564.97
2023-04-26T06:01:34.341Z,98564.77
2023-04-26T06:06:36.992Z,98569.45
2023-04-26T06:11:39.299Z,98584.67
2023-04-26T06:16:43.725Z,98592.95
2023-04-26T06:21:45.955Z,98599.65
2023-04-26T06:26:47.685Z,98595.69
2023-04-26T06:31:49.830Z,98598.33
2023-04-26T06:36:54.671Z,98593.84
2023-04-26T06:41:57.691Z,98590.08
2023-04-26T06:47:02.748Z,98587.52
2023-04-26T06:52:08.280Z,98587.93
2023-04-26T06:57:11.455Z,98593.98
2023-04-26T07:02:15.671Z,98605.84
2023-04-26T07:07:17.884Z,98610.98
2023-04-26T07:12:19.652Z,98614.78
2023-04-26T07:17:22.357Z,98620.25
2023-04-26T07:22:24.515Z,98625.12
2023-04-26T07:27:26.395Z,98628.30
2023-04-26T07:32:28.174Z,98625.85
2023-04-26T07:37:29.866Z,98625.73
2023-04-26T07:42:31.525Z,98627.77
2023-04-26T07:47:33.364Z,98627.54
2023-04-26T07:52:35.458Z,98627.20
2023-04-26T07:57:37.781Z,98633.12
2023-04-26T08:02:45.091Z,98627.58
2023-04-26T08:07:47.198Z,98628.52
2023-04-26T08:12:50.424Z,98627.40
2023-04-26T08:17:53.434Z,98629.86
2023-04-26T08:22:57.137Z,98626.67
2023-04-26T08:27:58.835Z,98629.00
2023-04-26T08:33:01.568Z,98633.91
2023-04-26T08:38:03.590Z,98638.73
2023-04-26T08:43:05.684Z,98643.64
2023-04-26T08:48:14.826Z,98647.48
2023-04-26T08:53:21.610Z,98649.69
2023-04-26T08:58:24.188Z,98650.39
2023-04-26T09:03:26.619Z,98652.38
2023-04-26T09:08:29.522Z,98656.30
2023-04-26T09:13:31.488Z,98663.52
2023-04-26T09:18:34.162Z,98661.41
2023-04-26T09:23:36.177Z,98659.65
2023-04-26T09:28:38.042Z,98655.96
2023-04-26T09:33:58.542Z,98648.76
2023-04-26T09:39:00.545Z,98663.61
2023-04-26T09:44:02.454Z,98672.28
2023-04-26T09:49:04.247Z,98664.77
2023-04-26T09:54:06.488Z,98649.33
2023-04-26T09:59:11.488Z,98642.23
2023-04-26T10:04:13.527Z,98646.66
2023-04-26T10:09:16.048Z,98650.77
2023-04-26T10:14:18.427Z,98644.04
2023-04-26T10:19:21.942Z,98651.52
2023-04-26T10:24:24.428Z,98657.96
2023-04-26T10:29:54.990Z,98659.27
2023-04-26T10:35:13.518Z,98659.75
2023-04-26T10:40:24.503Z,98660.74
2023-04-26T10:45:28.926Z,98668.31
2023-04-26T10:50:30.694Z,98667.86
2023-04-26T10:55:40.594Z,98659.87
2023-04-26T11:01:18.437Z,98653.24
2023-04-26T11:06:23.396Z,98655.61
2023-04-26T11:11:27.318Z,98658.67
2023-04-26T11:16:29.383Z,98659.55
2023-04-26T11:21:32.679Z,98664.74
2023-04-26T11:26:35.240Z,98667.30
2023-04-26T11:31:37.266Z,98665.77
2023-04-26T11:36:39.079Z,98655.48
2023-04-26T11:41:40.826Z,98648.89
2023-04-26T11:46:45.273Z,98658.34
2023-04-26T11:51:49.628Z,98658.30
2023-04-26T11:56:51.319Z,98667.70
2023-04-26T12:01:53.572Z,98670.11
2023-04-26T12:06:56.490Z,98674.58
2023-04-26T12:12:02.772Z,98678.61
2023-04-26T12:17:07.471Z,98678.84
2023-04-26T12:22:09.444Z,98679.84
2023-04-26T12:27:20.893Z,98683.37
2023-04-26T12:32:22.972Z,98692.49
2023-04-26T12:37:24.772Z,98679.66
2023-04-26T12:42:26.749Z,98676.20
2023-04-26T12:47:28.496Z,98661.41
2023-04-26T12:52:30.534Z,98665.54
2023-04-26T12:57:32.353Z,98661.22
2023-04-26T13:02:34.540Z,98670.31
2023-04-26T13:07:37.583Z,98679.27
2023-04-26T13:12:39.704Z,98687.22
2023-04-26T13:17:43.003Z,98683.79
2023-04-26T13:22:44.815Z,98676.81
2023-04-26T13:27:46.961Z,98675.73
2023-04-26T13:32:49.518Z,98689.69
2023-04-26T13:37:52.718Z,98707.64
2023-04-26T13:42:54.408Z,98713.34
2023-04-26T13:47:56.168Z,98709.23
2023-04-26T13:52:58.051Z,98706.11
2023-04-26T13:57:59.755Z,98710.82
2023-04-26T14:03:01.628Z,98712.02
2023-04-26T14:08:03.633Z,98716.18
2023-04-26T14:13:05.417Z,98716.01
2023-04-26T14:18:08.751Z,98711.47
2023-04-26T14:23:10.634Z,98705.83
2023-04-26T14:28:12.726Z,98709.32
2023-04-26T14:33:14.624Z,98713.27
2023-04-26T14:38:16.759Z,98720.61
2023-04-26T14:43:18.797Z,98728.23
2023-04-26T14:48:20.756Z,98723.98
2023-04-26T14:53:22.448Z,98726.97
2023-04-26T14:58:25.738Z,98723.95
2023-04-26T15:03:27.860Z,98727.25
2023-04-26T15:08:30.058Z,98726.38
2023-04-26T15:13:31.897Z,98730.83
2023-04-26T15:18:33.663Z,98734.33
2023-04-26T15:23:35.489Z,98743.33
2023-04-26T15:28:37.216Z,98748.05
2023-04-26T15:33:39.198Z,98745.30
2023-04-26T15:38:44.956Z,98743.84
2023-04-26T15:43:46.578Z,98743.58
2023-04-26T15:48:48.873Z,98740.73
2023-04-26T15:53:51.523Z,98737.38
2023-04-26T15:58:53.234Z,98733.41
2023-04-26T16:03:55.116Z,98737.52
2023-04-26T16:08:56.998Z,98738.08
2023-04-26T16:13:58.777Z,98743.79
2023-04-26T16:19:00.820Z,98747.74
2023-04-26T16:24:02.532Z,98749.95
2023-04-26T16:29:04.535Z,98761.64
2023-04-26T16:34:06.907Z,98767.06
2023-04-26T16:39:08.789Z,98771.95
2023-04-26T16:44:11.193Z,98774.96
2023-04-26T16:49:12.981Z,98785.70
2023-04-26T16:54:14.686Z,98790.02
2023-04-26T16:59:16.394Z,98791.73
2023-04-26T17:04:18.498Z,98786.11
2023-04-26T17:09:20.744Z,98798.64
2023-04-26T17:14:22.416Z,98803.78
2023-04-26T17:19:24.504Z,98808.86
2023-04-26T17:24:26.257Z,98819.19
2023-04-26T17:29:28.175Z,98823.65
2023-04-26T17:34:29.981Z,98820.88
2023-04-26T17:39:31.726Z,98821.83
2023-04-26T17:44:33.433Z,98825.27
2023-04-26T17:49:35.325Z,98834.42
2023-04-26T17:54:37.082Z,98838.55
2023-04-26T17:59:38.746Z,98846.63
2023-04-26T18:04:41.361Z,98847.61
2023-04-26T18:09:43.323Z,98850.11
2023-04-26T18:14:45.293Z,98853.21
2023-04-26T18:19:47.069Z,98858.56
2023-04-26T18:24:48.795Z,98866.37
2023-04-26T18:29:50.683Z,98871.82
2023-04-26T18:34:52.523Z,98879.33
2023-04-26T18:39:54.699Z,98886.21
2023-04-26T18:44:56.637Z,98892.87
2023-04-26T18:49:59.160Z,98894.48
2023-04-26T18:55:01.112Z,98899.20
2023-04-26T19:00:05.047Z,98910.52
2023-04-26T19:05:08.335Z,98912.48
2023-04-26T19:10:10.602Z,98919.38
2023-04-26T19:15:12.393Z,98920.81
2023-04-26T19:20:15.159Z,98922.77
2023-04-26T19:25:20.579Z,98915.04
2023-04-26T19:30:22.278Z,98924.13
2023-04-26T19:35:24.249Z,98923.34
2023-04-26T19:40:25.986Z,98930.11
2023-04-26T19:45:29.035Z,98932.39
2023-04-26T19:50:30.747Z,98929.96
2023-04-26T19:55:32.873Z,98933.57
2023-04-26T20:00:39.017Z,98934.98
2023-04-26T20:05:41.178Z,98936.88
2023-04-26T20:10:42.994Z,98946.04
2023-04-26T20:15:44.661Z,98946.40
2023-04-26T20:20:47.823Z,98953.26
2023-04-26T20:25:51.276Z,98952.13
2023-04-26T20:30:53.183Z,98950.24
2023-04-26T20:35:54.942Z,98950.95
2023-04-26T20:40:57.334Z,98955.69
2023-04-26T20:45:59.057Z,98955.31
2023-04-26T20:51:02.056Z,98955.39
2023-04-26T20:56:04.127Z,98963.81
2023-04-26T21:01:07.343Z,98964.28
2023-04-26T21:06:09.857Z,98965.56
2023-04-26T21:11:31.490Z,98969.54
2023-04-26T21:16:33.171Z,98972.40
2023-04-26T21:21:35.171Z,98974.16
2023-04-26T21:26:36.948Z,98979.14
2023-04-26T21:31:38.668Z,98985.58
2023-04-26T21:36:41.021Z,98992.44
2023-04-26T21:42:03.652Z,98989.56
2023-04-26T21:47:25.478Z,98990.27
2023-04-26T21:52:28.796Z,98993.81
2023-04-26T21:57:30.515Z,99004.52
2023-04-26T22:02:32.377Z,99003.76
2023-04-26T22:07:34.851Z,99011.20
2023-04-26T22:12:36.691Z,99017.88
2023-04-26T22:17:38.430Z,99019.98
2023-04-26T22:22:40.827Z,99024.75
2023-04-26T22:27:42.481Z,99024.83
2023-04-26T22:32:44.174Z,99027.27
2023-04-26T22:37:47.150Z,99028.52
2023-04-26T22:42:48.968Z,99028.69
2023-04-26T22:47:51.033Z,99027.93
2023-04-26T22:52:53.003Z,99028.21
2023-04-26T22:57:54.846Z,99030.21
2023-04-26T23:02:56.760Z,99031.43
2023-04-26T23:07:59.899Z,99032.51
2023-04-26T23:13:09.804Z,99039.65
2023-04-26T23:18:11.924Z,99041.45
2023-04-26T23:23:13.653Z,99040.16
2023-04-26T23:28:15.465Z,99045.68
2023-04-26T23:33:19.406Z,99046.90
2023-04-26T23:38:23.023Z,99049.98
2023-04-26T23:43:25.398Z,99054.27
2023-04-26T23:48:28.711Z,99059.61
2023-04-26T23:53:30.843Z,99062.23
2023-04-26T23:58:32.524Z,99061.16
